sensor_id;sensor_type;location;lat;lon;timestamp;temperature;humidity
49579;DHT22;35483;50.828;3.228;2023-07-28T00:01:34;19.80;97.10
49579;DHT22;35483;50.828;3.228;2023-07-28T00:03:59;19.80;96.90
49579;DHT22;35483;50.828;3.228;2023-07-28T00:06:25;19.80;96.90
49579;DHT22;35483;50.828;3.228;2023-07-28T00:08:51;19.90;96.70
49579;DHT22;35483;50.828;3.228;2023-07-28T00:11:16;19.90;96.90
49579;DHT22;35483;50.828;3.228;2023-07-28T00:13:43;19.90;96.80
49579;DHT22;35483;50.828;3.228;2023-07-28T00:16:09;19.90;97.10
49579;DHT22;35483;50.828;3.228;2023-07-28T00:18:35;19.90;96.90
49579;DHT22;35483;50.828;3.228;2023-07-28T00:21:01;19.90;96.90
49579;DHT22;35483;50.828;3.228;2023-07-28T00:23:28;19.90;97.00
49579;DHT22;35483;50.828;3.228;2023-07-28T00:25:55;19.90;97.00
49579;DHT22;35483;50.828;3.228;2023-07-28T00:28:20;19.90;97.00
49579;DHT22;35483;50.828;3.228;2023-07-28T00:30:49;19.90;96.90
49579;DHT22;35483;50.828;3.228;2023-07-28T00:33:16;19.90;97.00
49579;DHT22;35483;50.828;3.228;2023-07-28T00:35:41;19.90;97.20
49579;DHT22;35483;50.828;3.228;2023-07-28T00:38:08;19.90;97.10
49579;DHT22;35483;50.828;3.228;2023-07-28T00:40:35;19.90;97.10
49579;DHT22;35483;50.828;3.228;2023-07-28T00:43:01;19.90;97.20
49579;DHT22;35483;50.828;3.228;2023-07-28T00:45:27;19.90;97.30
49579;DHT22;35483;50.828;3.228;2023-07-28T00:47:55;19.90;97.20
49579;DHT22;35483;50.828;3.228;2023-07-28T00:50:23;19.90;97.40
49579;DHT22;35483;50.828;3.228;2023-07-28T00:52:49;19.90;97.30
49579;DHT22;35483;50.828;3.228;2023-07-28T00:55:15;19.90;97.30
49579;DHT22;35483;50.828;3.228;2023-07-28T00:57:42;19.90;97.40
49579;DHT22;35483;50.828;3.228;2023-07-28T01:00:09;20.00;97.50
49579;DHT22;35483;50.828;3.228;2023-07-28T01:02:35;20.00;97.40
49579;DHT22;35483;50.828;3.228;2023-07-28T01:05:01;20.00;97.40
49579;DHT22;35483;50.828;3.228;2023-07-28T01:07:59;20.00;97.30
49579;DHT22;35483;50.828;3.228;2023-07-28T01:10:32;20.00;98.10
49579;DHT22;35483;50.828;3.228;2023-07-28T01:12:58;20.00;97.50
49579;DHT22;35483;50.828;3.228;2023-07-28T01:15:24;20.00;97.30
49579;DHT22;35483;50.828;3.228;2023-07-28T01:17:51;20.00;97.40
49579;DHT22;35483;50.828;3.228;2023-07-28T01:20:17;20.00;97.40
49579;DHT22;35483;50.828;3.228;2023-07-28T01:28:25;20.00;97.70
49579;DHT22;35483;50.828;3.228;2023-07-28T01:30:51;20.00;97.50
49579;DHT22;35483;50.828;3.228;2023-07-28T01:33:17;20.00;97.60
49579;DHT22;35483;50.828;3.228;2023-07-28T01:35:42;20.00;97.60
49579;DHT22;35483;50.828;3.228;2023-07-28T01:38:08;20.00;97.50
49579;DHT22;35483;50.828;3.228;2023-07-28T01:40:34;20.00;97.60
49579;DHT22;35483;50.828;3.228;2023-07-28T01:42:59;20.00;97.60
49579;DHT22;35483;50.828;3.228;2023-07-28T01:45:26;20.00;97.70
49579;DHT22;35483;50.828;3.228;2023-07-28T01:47:51;20.00;97.60
49579;DHT22;35483;50.828;3.228;2023-07-28T01:50:17;20.00;97.50
49579;DHT22;35483;50.828;3.228;2023-07-28T01:52:43;20.00;97.70
49579;DHT22;35483;50.828;3.228;2023-07-28T01:55:08;20.00;97.70
49579;DHT22;35483;50.828;3.228;2023-07-28T01:57:34;20.00;97.50
49579;DHT22;35483;50.828;3.228;2023-07-28T02:00:01;20.00;97.80
49579;DHT22;35483;50.828;3.228;2023-07-28T02:02:28;20.00;97.70
49579;DHT22;35483;50.828;3.228;2023-07-28T02:04:55;20.00;97.70
49579;DHT22;35483;50.828;3.228;2023-07-28T02:07:21;20.00;97.90
49579;DHT22;35483;50.828;3.228;2023-07-28T02:09:47;20.00;97.90
49579;DHT22;35483;50.828;3.228;2023-07-28T02:12:12;20.00;97.60
49579;DHT22;35483;50.828;3.228;2023-07-28T02:14:38;20.00;97.70
49579;DHT22;35483;50.828;3.228;2023-07-28T02:17:04;20.00;97.80
49579;DHT22;35483;50.828;3.228;2023-07-28T02:19:30;20.00;97.70
49579;DHT22;35483;50.828;3.228;2023-07-28T02:21:56;20.00;98.10
49579;DHT22;35483;50.828;3.228;2023-07-28T02:24:22;20.00;97.70
49579;DHT22;35483;50.828;3.228;2023-07-28T02:26:47;20.00;97.80
49579;DHT22;35483;50.828;3.228;2023-07-28T02:29:13;20.00;97.90
49579;DHT22;35483;50.828;3.228;2023-07-28T02:31:39;20.00;97.80
49579;DHT22;35483;50.828;3.228;2023-07-28T02:34:05;20.00;97.90
49579;DHT22;35483;50.828;3.228;2023-07-28T02:36:31;20.00;98.00
49579;DHT22;35483;50.828;3.228;2023-07-28T02:38:57;20.00;97.90
49579;DHT22;35483;50.828;3.228;2023-07-28T02:41:23;20.10;97.90
49579;DHT22;35483;50.828;3.228;2023-07-28T02:43:48;20.00;98.00
49579;DHT22;35483;50.828;3.228;2023-07-28T02:46:15;20.00;98.00
49579;DHT22;35483;50.828;3.228;2023-07-28T02:48:41;20.10;97.90
49579;DHT22;35483;50.828;3.228;2023-07-28T02:51:07;20.10;98.00
49579;DHT22;35483;50.828;3.228;2023-07-28T02:53:32;20.10;98.00
49579;DHT22;35483;50.828;3.228;2023-07-28T02:55:58;20.10;98.00
49579;DHT22;35483;50.828;3.228;2023-07-28T02:58:24;20.00;98.00
49579;DHT22;35483;50.828;3.228;2023-07-28T03:00:51;20.10;98.10
49579;DHT22;35483;50.828;3.228;2023-07-28T03:03:21;20.10;98.20
49579;DHT22;35483;50.828;3.228;2023-07-28T03:05:47;20.00;98.00
49579;DHT22;35483;50.828;3.228;2023-07-28T03:08:16;20.00;98.00
49579;DHT22;35483;50.828;3.228;2023-07-28T03:10:42;20.00;98.00
49579;DHT22;35483;50.828;3.228;2023-07-28T03:13:07;20.00;98.10
49579;DHT22;35483;50.828;3.228;2023-07-28T03:15:33;20.00;98.10
49579;DHT22;35483;50.828;3.228;2023-07-28T03:17:59;20.00;97.90
49579;DHT22;35483;50.828;3.228;2023-07-28T03:20:24;20.00;98.00
49579;DHT22;35483;50.828;3.228;2023-07-28T03:22:50;20.00;97.90
49579;DHT22;35483;50.828;3.228;2023-07-28T03:25:16;20.00;98.10
49579;DHT22;35483;50.828;3.228;2023-07-28T03:27:42;20.00;98.00
49579;DHT22;35483;50.828;3.228;2023-07-28T03:30:08;20.00;98.10
49579;DHT22;35483;50.828;3.228;2023-07-28T03:32:36;20.00;98.10
49579;DHT22;35483;50.828;3.228;2023-07-28T03:35:03;20.00;98.00
49579;DHT22;35483;50.828;3.228;2023-07-28T03:37:31;20.00;98.10
49579;DHT22;35483;50.828;3.228;2023-07-28T03:39:58;20.00;98.20
49579;DHT22;35483;50.828;3.228;2023-07-28T03:42:24;20.00;98.30
49579;DHT22;35483;50.828;3.228;2023-07-28T03:44:50;19.90;98.30
49579;DHT22;35483;50.828;3.228;2023-07-28T03:47:15;19.90;98.20
49579;DHT22;35483;50.828;3.228;2023-07-28T03:49:41;20.00;98.30
49579;DHT22;35483;50.828;3.228;2023-07-28T03:52:07;19.90;98.20
49579;DHT22;35483;50.828;3.228;2023-07-28T03:54:32;19.90;98.10
49579;DHT22;35483;50.828;3.228;2023-07-28T03:56:58;19.90;98.30
49579;DHT22;35483;50.828;3.228;2023-07-28T03:59:24;19.90;98.30
49579;DHT22;35483;50.828;3.228;2023-07-28T04:01:50;19.90;98.30
49579;DHT22;35483;50.828;3.228;2023-07-28T04:04:15;19.90;98.20
49579;DHT22;35483;50.828;3.228;2023-07-28T04:06:43;19.90;98.20
49579;DHT22;35483;50.828;3.228;2023-07-28T04:09:09;19.90;98.30
49579;DHT22;35483;50.828;3.228;2023-07-28T04:11:35;20.00;98.30
49579;DHT22;35483;50.828;3.228;2023-07-28T04:14:01;19.90;98.30
49579;DHT22;35483;50.828;3.228;2023-07-28T04:16:27;19.90;98.40
49579;DHT22;35483;50.828;3.228;2023-07-28T04:18:52;20.00;98.50
49579;DHT22;35483;50.828;3.228;2023-07-28T04:21:18;20.00;98.40
49579;DHT22;35483;50.828;3.228;2023-07-28T04:23:44;20.00;98.40
49579;DHT22;35483;50.828;3.228;2023-07-28T04:26:09;20.00;98.50
49579;DHT22;35483;50.828;3.228;2023-07-28T04:28:35;20.00;98.40
49579;DHT22;35483;50.828;3.228;2023-07-28T04:31:01;20.00;98.40
49579;DHT22;35483;50.828;3.228;2023-07-28T04:33:27;20.00;98.50
49579;DHT22;35483;50.828;3.228;2023-07-28T04:35:52;20.00;98.40
49579;DHT22;35483;50.828;3.228;2023-07-28T04:38:18;20.00;98.50
49579;DHT22;35483;50.828;3.228;2023-07-28T04:40:44;20.00;98.60
49579;DHT22;35483;50.828;3.228;2023-07-28T04:43:10;20.00;98.60
49579;DHT22;35483;50.828;3.228;2023-07-28T04:45:36;20.00;98.40
49579;DHT22;35483;50.828;3.228;2023-07-28T04:48:01;20.00;98.60
49579;DHT22;35483;50.828;3.228;2023-07-28T04:50:28;20.00;98.40
49579;DHT22;35483;50.828;3.228;2023-07-28T04:52:54;20.00;98.60
49579;DHT22;35483;50.828;3.228;2023-07-28T04:55:20;20.00;98.50
49579;DHT22;35483;50.828;3.228;2023-07-28T04:57:46;20.00;98.50
49579;DHT22;35483;50.828;3.228;2023-07-28T05:00:12;20.00;98.50
49579;DHT22;35483;50.828;3.228;2023-07-28T05:02:38;20.10;98.40
49579;DHT22;35483;50.828;3.228;2023-07-28T05:05:04;20.00;98.50
49579;DHT22;35483;50.828;3.228;2023-07-28T05:07:30;20.00;98.30
49579;DHT22;35483;50.828;3.228;2023-07-28T05:09:55;20.00;98.40
49579;DHT22;35483;50.828;3.228;2023-07-28T05:12:21;20.00;98.30
49579;DHT22;35483;50.828;3.228;2023-07-28T05:14:47;20.00;98.40
49579;DHT22;35483;50.828;3.228;2023-07-28T05:17:13;20.00;98.30
49579;DHT22;35483;50.828;3.228;2023-07-28T05:19:38;20.00;98.30
49579;DHT22;35483;50.828;3.228;2023-07-28T05:22:04;20.00;98.40
49579;DHT22;35483;50.828;3.228;2023-07-28T05:24:33;20.00;98.20
49579;DHT22;35483;50.828;3.228;2023-07-28T05:26:58;20.00;98.20
49579;DHT22;35483;50.828;3.228;2023-07-28T05:29:24;20.00;98.30
49579;DHT22;35483;50.828;3.228;2023-07-28T05:31:51;20.00;98.30
49579;DHT22;35483;50.828;3.228;2023-07-28T05:34:16;20.00;98.60
49579;DHT22;35483;50.828;3.228;2023-07-28T05:36:43;20.00;98.50
49579;DHT22;35483;50.828;3.228;2023-07-28T05:39:09;20.00;98.40
49579;DHT22;35483;50.828;3.228;2023-07-28T05:41:36;20.10;98.30
49579;DHT22;35483;50.828;3.228;2023-07-28T05:44:02;20.10;98.30
49579;DHT22;35483;50.828;3.228;2023-07-28T05:46:28;20.10;98.50
49579;DHT22;35483;50.828;3.228;2023-07-28T05:48:58;20.10;98.80
49579;DHT22;35483;50.828;3.228;2023-07-28T05:51:23;20.10;98.70
49579;DHT22;35483;50.828;3.228;2023-07-28T05:53:50;20.10;98.50
49579;DHT22;35483;50.828;3.228;2023-07-28T05:56:16;20.10;98.30
49579;DHT22;35483;50.828;3.228;2023-07-28T05:58:42;20.20;98.50
49579;DHT22;35483;50.828;3.228;2023-07-28T06:01:07;20.20;98.40
49579;DHT22;35483;50.828;3.228;2023-07-28T06:03:33;20.20;98.30
49579;DHT22;35483;50.828;3.228;2023-07-28T06:05:59;20.20;98.20
49579;DHT22;35483;50.828;3.228;2023-07-28T06:08:24;20.20;98.20
49579;DHT22;35483;50.828;3.228;2023-07-28T06:10:50;20.30;98.20
49579;DHT22;35483;50.828;3.228;2023-07-28T06:13:16;20.30;98.20
49579;DHT22;35483;50.828;3.228;2023-07-28T06:15:42;20.30;98.10
49579;DHT22;35483;50.828;3.228;2023-07-28T06:18:08;20.40;98.20
49579;DHT22;35483;50.828;3.228;2023-07-28T06:20:34;20.40;98.20
49579;DHT22;35483;50.828;3.228;2023-07-28T06:23:00;20.50;98.20
49579;DHT22;35483;50.828;3.228;2023-07-28T06:25:26;20.60;98.10
49579;DHT22;35483;50.828;3.228;2023-07-28T06:27:52;20.70;98.00
49579;DHT22;35483;50.828;3.228;2023-07-28T06:30:18;20.70;98.00
49579;DHT22;35483;50.828;3.228;2023-07-28T06:32:44;20.70;98.10
49579;DHT22;35483;50.828;3.228;2023-07-28T06:35:10;20.80;98.00
49579;DHT22;35483;50.828;3.228;2023-07-28T06:37:38;20.80;97.90
49579;DHT22;35483;50.828;3.228;2023-07-28T06:40:05;20.90;97.70
49579;DHT22;35483;50.828;3.228;2023-07-28T06:42:33;20.90;97.70
49579;DHT22;35483;50.828;3.228;2023-07-28T06:44:59;21.00;97.70
49579;DHT22;35483;50.828;3.228;2023-07-28T06:47:25;21.10;97.60
49579;DHT22;35483;50.828;3.228;2023-07-28T06:49:51;21.20;97.50
49579;DHT22;35483;50.828;3.228;2023-07-28T06:52:16;21.30;97.30
49579;DHT22;35483;50.828;3.228;2023-07-28T06:54:42;21.40;97.30
49579;DHT22;35483;50.828;3.228;2023-07-28T06:57:09;21.40;97.10
49579;DHT22;35483;50.828;3.228;2023-07-28T06:59:35;21.40;97.10
49579;DHT22;35483;50.828;3.228;2023-07-28T07:02:01;21.40;97.10
49579;DHT22;35483;50.828;3.228;2023-07-28T07:04:27;21.40;96.90
49579;DHT22;35483;50.828;3.228;2023-07-28T07:06:52;21.40;97.00
49579;DHT22;35483;50.828;3.228;2023-07-28T07:09:18;21.40;97.00
49579;DHT22;35483;50.828;3.228;2023-07-28T07:11:44;21.50;97.00
49579;DHT22;35483;50.828;3.228;2023-07-28T07:14:10;21.70;97.10
49579;DHT22;35483;50.828;3.228;2023-07-28T07:16:35;21.80;96.70
49579;DHT22;35483;50.828;3.228;2023-07-28T07:19:01;21.90;96.60
49579;DHT22;35483;50.828;3.228;2023-07-28T07:21:28;21.90;96.70
49579;DHT22;35483;50.828;3.228;2023-07-28T07:23:53;22.00;96.70
49579;DHT22;35483;50.828;3.228;2023-07-28T07:26:19;22.00;96.50
49579;DHT22;35483;50.828;3.228;2023-07-28T07:28:45;22.00;96.50
49579;DHT22;35483;50.828;3.228;2023-07-28T07:31:16;22.00;96.60
49579;DHT22;35483;50.828;3.228;2023-07-28T07:33:42;22.00;96.70
49579;DHT22;35483;50.828;3.228;2023-07-28T07:36:18;22.00;96.70
49579;DHT22;35483;50.828;3.228;2023-07-28T07:38:44;22.00;96.50
49579;DHT22;35483;50.828;3.228;2023-07-28T07:41:17;21.90;96.50
49579;DHT22;35483;50.828;3.228;2023-07-28T07:43:45;21.90;96.60
49579;DHT22;35483;50.828;3.228;2023-07-28T07:46:12;21.90;96.50
49579;DHT22;35483;50.828;3.228;2023-07-28T07:48:38;21.90;96.60
49579;DHT22;35483;50.828;3.228;2023-07-28T07:51:03;22.00;96.50
49579;DHT22;35483;50.828;3.228;2023-07-28T07:53:29;22.00;96.40
49579;DHT22;35483;50.828;3.228;2023-07-28T07:55:55;21.90;96.50
49579;DHT22;35483;50.828;3.228;2023-07-28T07:58:20;21.80;96.60
49579;DHT22;35483;50.828;3.228;2023-07-28T08:00:46;21.80;96.70
49579;DHT22;35483;50.828;3.228;2023-07-28T08:03:12;21.80;96.60
49579;DHT22;35483;50.828;3.228;2023-07-28T08:05:38;21.80;96.50
49579;DHT22;35483;50.828;3.228;2023-07-28T08:08:04;21.80;96.60
49579;DHT22;35483;50.828;3.228;2023-07-28T08:10:32;21.90;96.50
49579;DHT22;35483;50.828;3.228;2023-07-28T08:12:58;21.90;96.60
49579;DHT22;35483;50.828;3.228;2023-07-28T08:15:25;22.10;96.40
49579;DHT22;35483;50.828;3.228;2023-07-28T08:17:51;22.20;96.20
49579;DHT22;35483;50.828;3.228;2023-07-28T08:20:17;22.40;96.10
49579;DHT22;35483;50.828;3.228;2023-07-28T08:22:43;22.50;96.10
49579;DHT22;35483;50.828;3.228;2023-07-28T08:25:09;22.60;96.00
49579;DHT22;35483;50.828;3.228;2023-07-28T08:27:35;22.70;95.90
49579;DHT22;35483;50.828;3.228;2023-07-28T08:30:01;22.60;96.00
49579;DHT22;35483;50.828;3.228;2023-07-28T08:32:26;22.60;96.00
49579;DHT22;35483;50.828;3.228;2023-07-28T08:34:54;22.50;96.30
49579;DHT22;35483;50.828;3.228;2023-07-28T08:37:20;22.50;96.10
49579;DHT22;35483;50.828;3.228;2023-07-28T08:39:45;22.50;96.00
49579;DHT22;35483;50.828;3.228;2023-07-28T08:42:11;22.60;95.90
49579;DHT22;35483;50.828;3.228;2023-07-28T08:44:37;22.70;95.80
49579;DHT22;35483;50.828;3.228;2023-07-28T08:47:04;22.70;95.70
49579;DHT22;35483;50.828;3.228;2023-07-28T08:49:33;22.80;95.70
49579;DHT22;35483;50.828;3.228;2023-07-28T08:52:03;22.80;95.60
49579;DHT22;35483;50.828;3.228;2023-07-28T08:54:29;22.80;95.50
49579;DHT22;35483;50.828;3.228;2023-07-28T08:56:57;22.90;95.50
49579;DHT22;35483;50.828;3.228;2023-07-28T08:59:27;23.00;95.40
49579;DHT22;35483;50.828;3.228;2023-07-28T09:01:54;23.10;95.20
49579;DHT22;35483;50.828;3.228;2023-07-28T09:04:21;23.20;95.20
49579;DHT22;35483;50.828;3.228;2023-07-28T09:06:48;23.30;95.10
49579;DHT22;35483;50.828;3.228;2023-07-28T09:09:15;23.30;95.00
49579;DHT22;35483;50.828;3.228;2023-07-28T09:11:54;23.20;95.00
49579;DHT22;35483;50.828;3.228;2023-07-28T09:14:21;23.00;94.90
49579;DHT22;35483;50.828;3.228;2023-07-28T09:16:49;22.90;95.40
49579;DHT22;35483;50.828;3.228;2023-07-28T09:19:15;22.70;95.40
49579;DHT22;35483;50.828;3.228;2023-07-28T09:21:44;22.60;95.60
49579;DHT22;35483;50.828;3.228;2023-07-28T09:24:13;22.50;95.60
49579;DHT22;35483;50.828;3.228;2023-07-28T09:26:44;22.60;95.60
49579;DHT22;35483;50.828;3.228;2023-07-28T09:29:17;22.50;95.60
49579;DHT22;35483;50.828;3.228;2023-07-28T09:31:44;22.60;95.60
49579;DHT22;35483;50.828;3.228;2023-07-28T09:34:11;22.70;95.50
49579;DHT22;35483;50.828;3.228;2023-07-28T09:36:37;22.80;95.50
49579;DHT22;35483;50.828;3.228;2023-07-28T09:39:06;22.90;95.50
49579;DHT22;35483;50.828;3.228;2023-07-28T09:41:36;23.00;95.40
49579;DHT22;35483;50.828;3.228;2023-07-28T09:44:05;23.10;95.30
49579;DHT22;35483;50.828;3.228;2023-07-28T09:46:35;23.20;95.20
49579;DHT22;35483;50.828;3.228;2023-07-28T09:49:10;23.20;95.10
49579;DHT22;35483;50.828;3.228;2023-07-28T09:51:41;23.10;95.10
49579;DHT22;35483;50.828;3.228;2023-07-28T09:54:14;23.00;95.30
49579;DHT22;35483;50.828;3.228;2023-07-28T09:56:43;22.90;95.30
49579;DHT22;35483;50.828;3.228;2023-07-28T09:59:13;22.80;95.30
49579;DHT22;35483;50.828;3.228;2023-07-28T10:01:44;22.70;95.30
49579;DHT22;35483;50.828;3.228;2023-07-28T10:04:10;22.80;95.30
49579;DHT22;35483;50.828;3.228;2023-07-28T10:06:36;22.70;95.30
49579;DHT22;35483;50.828;3.228;2023-07-28T10:09:04;22.70;95.30
49579;DHT22;35483;50.828;3.228;2023-07-28T10:11:31;22.60;95.40
49579;DHT22;35483;50.828;3.228;2023-07-28T10:13:57;22.60;95.30
49579;DHT22;35483;50.828;3.228;2023-07-28T10:16:31;22.60;95.30
49579;DHT22;35483;50.828;3.228;2023-07-28T10:19:03;22.60;95.30
49579;DHT22;35483;50.828;3.228;2023-07-28T10:21:30;22.60;95.40
49579;DHT22;35483;50.828;3.228;2023-07-28T10:23:58;22.80;95.30
49579;DHT22;35483;50.828;3.228;2023-07-28T10:26:39;23.00;95.10
49579;DHT22;35483;50.828;3.228;2023-07-28T10:29:14;23.30;94.80
49579;DHT22;35483;50.828;3.228;2023-07-28T10:31:54;23.40;94.60
49579;DHT22;35483;50.828;3.228;2023-07-28T10:34:21;23.50;94.70
49579;DHT22;35483;50.828;3.228;2023-07-28T10:36:57;23.50;94.70
49579;DHT22;35483;50.828;3.228;2023-07-28T10:39:23;23.50;94.50
49579;DHT22;35483;50.828;3.228;2023-07-28T10:42:06;23.40;94.80
49579;DHT22;35483;50.828;3.228;2023-07-28T10:44:32;23.20;94.60
49579;DHT22;35483;50.828;3.228;2023-07-28T10:46:58;23.00;95.10
49579;DHT22;35483;50.828;3.228;2023-07-28T10:49:32;22.90;95.20
49579;DHT22;35483;50.828;3.228;2023-07-28T10:51:59;22.70;95.50
49579;DHT22;35483;50.828;3.228;2023-07-28T10:54:25;22.60;95.60
49579;DHT22;35483;50.828;3.228;2023-07-28T10:56:50;22.60;95.40
49579;DHT22;35483;50.828;3.228;2023-07-28T10:59:16;22.60;95.40
49579;DHT22;35483;50.828;3.228;2023-07-28T11:01:42;22.60;95.40
49579;DHT22;35483;50.828;3.228;2023-07-28T11:04:19;22.70;95.40
49579;DHT22;35483;50.828;3.228;2023-07-28T11:06:47;22.80;95.20
49579;DHT22;35483;50.828;3.228;2023-07-28T11:09:14;22.80;95.30
49579;DHT22;35483;50.828;3.228;2023-07-28T11:11:40;22.90;95.30
49579;DHT22;35483;50.828;3.228;2023-07-28T11:14:08;23.00;95.30
49579;DHT22;35483;50.828;3.228;2023-07-28T11:16:35;23.10;95.20
49579;DHT22;35483;50.828;3.228;2023-07-28T11:19:03;23.20;95.10
49579;DHT22;35483;50.828;3.228;2023-07-28T11:21:29;23.30;95.10
49579;DHT22;35483;50.828;3.228;2023-07-28T11:23:56;23.60;94.90
49579;DHT22;35483;50.828;3.228;2023-07-28T11:26:23;24.00;94.70
49579;DHT22;35483;50.828;3.228;2023-07-28T11:28:49;24.20;94.30
49579;DHT22;35483;50.828;3.228;2023-07-28T11:31:15;24.50;94.20
49579;DHT22;35483;50.828;3.228;2023-07-28T11:33:40;24.70;94.20
49579;DHT22;35483;50.828;3.228;2023-07-28T11:36:07;24.90;94.00
49579;DHT22;35483;50.828;3.228;2023-07-28T11:38:34;25.10;93.90
49579;DHT22;35483;50.828;3.228;2023-07-28T11:41:01;25.20;93.80
49579;DHT22;35483;50.828;3.228;2023-07-28T11:43:27;25.30;93.80
49579;DHT22;35483;50.828;3.228;2023-07-28T11:45:53;25.30;93.70
49579;DHT22;35483;50.828;3.228;2023-07-28T11:48:19;25.30;93.80
49579;DHT22;35483;50.828;3.228;2023-07-28T11:50:44;25.40;93.70
49579;DHT22;35483;50.828;3.228;2023-07-28T11:53:11;25.50;93.70
49579;DHT22;35483;50.828;3.228;2023-07-28T11:55:39;25.60;93.70
49579;DHT22;35483;50.828;3.228;2023-07-28T11:58:06;25.60;93.60
49579;DHT22;35483;50.828;3.228;2023-07-28T12:00:40;25.50;93.60
49579;DHT22;35483;50.828;3.228;2023-07-28T12:03:13;25.30;93.00
49579;DHT22;35483;50.828;3.228;2023-07-28T12:05:40;25.00;93.50
49579;DHT22;35483;50.828;3.228;2023-07-28T12:08:06;24.80;94.00
49579;DHT22;35483;50.828;3.228;2023-07-28T12:10:35;24.60;94.10
49579;DHT22;35483;50.828;3.228;2023-07-28T12:13:07;24.40;94.20
49579;DHT22;35483;50.828;3.228;2023-07-28T12:15:34;24.20;93.50
49579;DHT22;35483;50.828;3.228;2023-07-28T12:20:36;24.40;94.20
49579;DHT22;35483;50.828;3.228;2023-07-28T12:23:02;24.70;93.90
49579;DHT22;35483;50.828;3.228;2023-07-28T12:25:29;24.90;93.90
49579;DHT22;35483;50.828;3.228;2023-07-28T12:27:54;25.10;93.60
49579;DHT22;35483;50.828;3.228;2023-07-28T12:30:22;25.30;93.60
49579;DHT22;35483;50.828;3.228;2023-07-28T12:32:47;25.40;93.40
49579;DHT22;35483;50.828;3.228;2023-07-28T12:35:13;25.40;93.40
49579;DHT22;35483;50.828;3.228;2023-07-28T12:37:39;25.30;93.30
49579;DHT22;35483;50.828;3.228;2023-07-28T12:40:05;25.30;93.40
49579;DHT22;35483;50.828;3.228;2023-07-28T12:42:32;25.40;93.40
49579;DHT22;35483;50.828;3.228;2023-07-28T12:44:58;25.50;93.30
49579;DHT22;35483;50.828;3.228;2023-07-28T12:47:24;25.70;93.20
49579;DHT22;35483;50.828;3.228;2023-07-28T12:49:50;25.90;93.10
49579;DHT22;35483;50.828;3.228;2023-07-28T12:52:15;26.00;93.00
49579;DHT22;35483;50.828;3.228;2023-07-28T12:54:41;26.00;92.90
49579;DHT22;35483;50.828;3.228;2023-07-28T12:57:08;26.00;92.80
49579;DHT22;35483;50.828;3.228;2023-07-28T12:59:36;26.00;92.90
49579;DHT22;35483;50.828;3.228;2023-07-28T13:02:02;25.90;92.90
49579;DHT22;35483;50.828;3.228;2023-07-28T13:04:27;25.90;93.00
49579;DHT22;35483;50.828;3.228;2023-07-28T13:06:53;25.80;92.90
49579;DHT22;35483;50.828;3.228;2023-07-28T13:09:19;25.90;93.00
49579;DHT22;35483;50.828;3.228;2023-07-28T13:11:45;25.90;92.90
49579;DHT22;35483;50.828;3.228;2023-07-28T13:14:10;26.00;92.80
49579;DHT22;35483;50.828;3.228;2023-07-28T13:16:36;26.10;93.00
49579;DHT22;35483;50.828;3.228;2023-07-28T13:19:03;26.30;92.60
49579;DHT22;35483;50.828;3.228;2023-07-28T13:21:29;26.40;92.60
49579;DHT22;35483;50.828;3.228;2023-07-28T13:23:55;26.40;92.50
49579;DHT22;35483;50.828;3.228;2023-07-28T13:26:20;26.50;92.60
49579;DHT22;35483;50.828;3.228;2023-07-28T13:28:46;26.50;92.50
49579;DHT22;35483;50.828;3.228;2023-07-28T13:31:14;26.60;92.50
49579;DHT22;35483;50.828;3.228;2023-07-28T13:33:41;26.50;92.30
49579;DHT22;35483;50.828;3.228;2023-07-28T13:36:06;26.40;92.40
49579;DHT22;35483;50.828;3.228;2023-07-28T13:38:35;26.40;92.40
49579;DHT22;35483;50.828;3.228;2023-07-28T13:41:03;26.40;92.30
49579;DHT22;35483;50.828;3.228;2023-07-28T13:43:29;26.50;92.30
49579;DHT22;35483;50.828;3.228;2023-07-28T13:45:56;26.60;92.30
49579;DHT22;35483;50.828;3.228;2023-07-28T13:48:21;26.70;92.30
49579;DHT22;35483;50.828;3.228;2023-07-28T13:50:47;26.80;92.10
49579;DHT22;35483;50.828;3.228;2023-07-28T13:53:12;26.80;92.20
49579;DHT22;35483;50.828;3.228;2023-07-28T13:55:38;26.70;92.10
49579;DHT22;35483;50.828;3.228;2023-07-28T13:58:04;26.60;92.20
49579;DHT22;35483;50.828;3.228;2023-07-28T14:00:32;26.50;92.30
49579;DHT22;35483;50.828;3.228;2023-07-28T14:02:57;26.40;92.30
49579;DHT22;35483;50.828;3.228;2023-07-28T14:05:23;26.30;92.30
49579;DHT22;35483;50.828;3.228;2023-07-28T14:07:49;26.30;92.20
49579;DHT22;35483;50.828;3.228;2023-07-28T14:10:14;26.40;92.20
49579;DHT22;35483;50.828;3.228;2023-07-28T14:12:40;26.50;92.00
49579;DHT22;35483;50.828;3.228;2023-07-28T14:15:07;26.50;91.90
49579;DHT22;35483;50.828;3.228;2023-07-28T14:17:33;26.50;91.90
49579;DHT22;35483;50.828;3.228;2023-07-28T14:19:58;26.50;92.00
49579;DHT22;35483;50.828;3.228;2023-07-28T14:22:24;26.50;91.90
49579;DHT22;35483;50.828;3.228;2023-07-28T14:24:50;26.40;92.00
49579;DHT22;35483;50.828;3.228;2023-07-28T14:27:16;26.30;92.00
49579;DHT22;35483;50.828;3.228;2023-07-28T14:29:41;26.30;92.00
49579;DHT22;35483;50.828;3.228;2023-07-28T14:32:07;26.20;92.00
49579;DHT22;35483;50.828;3.228;2023-07-28T14:34:34;26.20;92.00
49579;DHT22;35483;50.828;3.228;2023-07-28T14:37:06;26.10;91.90
49579;DHT22;35483;50.828;3.228;2023-07-28T14:39:31;26.20;91.60
49579;DHT22;35483;50.828;3.228;2023-07-28T14:41:57;26.30;91.90
49579;DHT22;35483;50.828;3.228;2023-07-28T14:44:23;26.40;91.80
49579;DHT22;35483;50.828;3.228;2023-07-28T14:46:48;26.50;91.80
49579;DHT22;35483;50.828;3.228;2023-07-28T14:49:14;26.50;91.70
49579;DHT22;35483;50.828;3.228;2023-07-28T14:51:40;26.40;92.00
49579;DHT22;35483;50.828;3.228;2023-07-28T14:54:05;26.30;91.80
49579;DHT22;35483;50.828;3.228;2023-07-28T14:56:32;26.30;91.90
49579;DHT22;35483;50.828;3.228;2023-07-28T14:58:58;26.30;91.70
49579;DHT22;35483;50.828;3.228;2023-07-28T15:01:26;26.30;91.70
49579;DHT22;35483;50.828;3.228;2023-07-28T15:03:52;26.40;91.80
49579;DHT22;35483;50.828;3.228;2023-07-28T15:06:18;26.50;91.70
49579;DHT22;35483;50.828;3.228;2023-07-28T15:08:43;26.50;91.50
49579;DHT22;35483;50.828;3.228;2023-07-28T15:11:09;26.50;91.60
49579;DHT22;35483;50.828;3.228;2023-07-28T15:13:35;26.40;91.70
49579;DHT22;35483;50.828;3.228;2023-07-28T15:16:01;26.40;91.50
49579;DHT22;35483;50.828;3.228;2023-07-28T15:18:26;26.40;91.50
49579;DHT22;35483;50.828;3.228;2023-07-28T15:20:52;26.30;91.40
49579;DHT22;35483;50.828;3.228;2023-07-28T15:23:24;26.30;91.40
49579;DHT22;35483;50.828;3.228;2023-07-28T15:25:49;26.20;91.40
49579;DHT22;35483;50.828;3.228;2023-07-28T15:28:18;26.10;91.30
49579;DHT22;35483;50.828;3.228;2023-07-28T15:30:43;26.00;91.10
49579;DHT22;35483;50.828;3.228;2023-07-28T15:33:11;25.90;91.20
49579;DHT22;35483;50.828;3.228;2023-07-28T15:35:37;25.90;91.30